sensor_id;sensor_type;location;lat;lon;timestamp;P1;durP1;ratioP1;P2;durP2;ratioP2
20036;SDS011;10179;42.640;23.312;2022-12-04T00:01:39;15.18;;;7.18;;
20036;SDS011;10179;42.640;23.312;2022-12-04T00:04:04;13.05;;;6.50;;
20036;SDS011;10179;42.640;23.312;2022-12-04T00:06:30;11.02;;;6.18;;
20036;SDS011;10179;42.640;23.312;2022-12-04T00:08:58;14.38;;;6.63;;
20036;SDS011;10179;42.640;23.312;2022-12-04T00:11:26;13.05;;;6.80;;
20036;SDS011;10179;42.640;23.312;2022-12-04T00:13:53;19.52;;;7.10;;
20036;SDS011;10179;42.640;23.312;2022-12-04T00:16:21;12.93;;;6.32;;
20036;SDS011;10179;42.640;23.312;2022-12-04T00:18:48;13.40;;;6.45;;
20036;SDS011;10179;42.640;23.312;2022-12-04T00:21:14;11.43;;;6.65;;
20036;SDS011;10179;42.640;23.312;2022-12-04T00:23:40;12.50;;;7.70;;
20036;SDS011;10179;42.640;23.312;2022-12-04T00:26:07;13.95;;;7.35;;
20036;SDS011;10179;42.640;23.312;2022-12-04T00:28:34;15.23;;;8.40;;
20036;SDS011;10179;42.640;23.312;2022-12-04T00:31:03;20.67;;;8.55;;
20036;SDS011;10179;42.640;23.312;2022-12-04T00:33:30;16.73;;;9.82;;
20036;SDS011;10179;42.640;23.312;2022-12-04T00:35:56;15.95;;;9.80;;
20036;SDS011;10179;42.640;23.312;2022-12-04T00:38:24;18.80;;;11.05;;
20036;SDS011;10179;42.640;23.312;2022-12-04T00:40:50;19.63;;;11.20;;
20036;SDS011;10179;42.640;23.312;2022-12-04T00:43:16;19.23;;;9.93;;
20036;SDS011;10179;42.640;23.312;2022-12-04T00:45:41;17.70;;;9.48;;
20036;SDS011;10179;42.640;23.312;2022-12-04T00:48:07;16.05;;;8.77;;
20036;SDS011;10179;42.640;23.312;2022-12-04T00:50:32;17.35;;;9.60;;
20036;SDS011;10179;42.640;23.312;2022-12-04T00:52:58;19.35;;;10.85;;
20036;SDS011;10179;42.640;23.312;2022-12-04T00:55:23;21.10;;;11.88;;
20036;SDS011;10179;42.640;23.312;2022-12-04T00:57:48;20.23;;;11.20;;
20036;SDS011;10179;42.640;23.312;2022-12-04T01:00:14;20.02;;;11.13;;
20036;SDS011;10179;42.640;23.312;2022-12-04T01:02:40;21.63;;;11.10;;
20036;SDS011;10179;42.640;23.312;2022-12-04T01:05:05;20.90;;;11.80;;
20036;SDS011;10179;42.640;23.312;2022-12-04T01:07:31;23.38;;;12.95;;
20036;SDS011;10179;42.640;23.312;2022-12-04T01:09:56;26.05;;;13.43;;
20036;SDS011;10179;42.640;23.312;2022-12-04T01:12:22;24.83;;;13.45;;
20036;SDS011;10179;42.640;23.312;2022-12-04T01:14:47;19.20;;;11.23;;
20036;SDS011;10179;42.640;23.312;2022-12-04T01:17:12;15.88;;;9.02;;
20036;SDS011;10179;42.640;23.312;2022-12-04T01:19:38;15.05;;;8.80;;
20036;SDS011;10179;42.640;23.312;2022-12-04T01:22:04;13.57;;;7.63;;
20036;SDS011;10179;42.640;23.312;2022-12-04T01:24:30;11.95;;;5.90;;
20036;SDS011;10179;42.640;23.312;2022-12-04T01:26:55;8.90;;;5.05;;
20036;SDS011;10179;42.640;23.312;2022-12-04T01:29:20;13.57;;;6.65;;
20036;SDS011;10179;42.640;23.312;2022-12-04T01:31:46;9.80;;;6.10;;
20036;SDS011;10179;42.640;23.312;2022-12-04T01:34:11;14.85;;;6.80;;
20036;SDS011;10179;42.640;23.312;2022-12-04T01:36:37;11.38;;;6.50;;
20036;SDS011;10179;42.640;23.312;2022-12-04T01:39:02;9.40;;;5.43;;
20036;SDS011;10179;42.640;23.312;2022-12-04T01:41:28;8.90;;;5.50;;
20036;SDS011;10179;42.640;23.312;2022-12-04T01:46:40;8.98;;;5.20;;
20036;SDS011;10179;42.640;23.312;2022-12-04T01:49:07;9.27;;;5.20;;
20036;SDS011;10179;42.640;23.312;2022-12-04T01:51:38;11.00;;;5.68;;
20036;SDS011;10179;42.640;23.312;2022-12-04T01:54:08;11.32;;;6.15;;
20036;SDS011;10179;42.640;23.312;2022-12-04T01:56:44;11.35;;;5.60;;
20036;SDS011;10179;42.640;23.312;2022-12-04T01:59:14;11.35;;;6.30;;
20036;SDS011;10179;42.640;23.312;2022-12-04T02:01:48;11.57;;;6.18;;
20036;SDS011;10179;42.640;23.312;2022-12-04T02:04:33;10.93;;;6.00;;
20036;SDS011;10179;42.640;23.312;2022-12-04T02:07:00;11.18;;;6.50;;
20036;SDS011;10179;42.640;23.312;2022-12-04T02:09:25;13.30;;;6.15;;
20036;SDS011;10179;42.640;23.312;2022-12-04T02:14:38;13.77;;;6.43;;
20036;SDS011;10179;42.640;23.312;2022-12-04T02:17:26;10.35;;;5.05;;
20036;SDS011;10179;42.640;23.312;2022-12-04T02:25:46;11.18;;;6.93;;
20036;SDS011;10179;42.640;23.312;2022-12-04T02:28:22;10.32;;;6.38;;
20036;SDS011;10179;42.640;23.312;2022-12-04T02:31:11;9.15;;;6.03;;
20036;SDS011;10179;42.640;23.312;2022-12-04T02:36:15;10.50;;;6.05;;
20036;SDS011;10179;42.640;23.312;2022-12-04T02:39:31;11.18;;;6.10;;
20036;SDS011;10179;42.640;23.312;2022-12-04T02:41:40;11.85;;;6.28;;
20036;SDS011;10179;42.640;23.312;2022-12-04T02:46:47;11.82;;;5.75;;
20036;SDS011;10179;42.640;23.312;2022-12-04T02:49:22;10.27;;;5.50;;
20036;SDS011;10179;42.640;23.312;2022-12-04T02:51:53;10.98;;;5.88;;
20036;SDS011;10179;42.640;23.312;2022-12-04T02:54:32;11.02;;;5.95;;
20036;SDS011;10179;42.640;23.312;2022-12-04T02:57:02;13.63;;;6.68;;
20036;SDS011;10179;42.640;23.312;2022-12-04T02:59:32;13.63;;;6.82;;
20036;SDS011;10179;42.640;23.312;2022-12-04T03:02:02;11.45;;;5.85;;
20036;SDS011;10179;42.640;23.312;2022-12-04T03:04:34;9.63;;;5.90;;
20036;SDS011;10179;42.640;23.312;2022-12-04T03:07:10;14.18;;;7.20;;
20036;SDS011;10179;42.640;23.312;2022-12-04T03:09:47;14.38;;;7.50;;
20036;SDS011;10179;42.640;23.312;2022-12-04T03:15:41;12.57;;;6.72;;
20036;SDS011;10179;42.640;23.312;2022-12-04T03:18:12;11.18;;;6.80;;
20036;SDS011;10179;42.640;23.312;2022-12-04T03:20:42;13.38;;;6.90;;
20036;SDS011;10179;42.640;23.312;2022-12-04T03:23:15;10.98;;;6.35;;
20036;SDS011;10179;42.640;23.312;2022-12-04T03:26:33;11.30;;;6.45;;
20036;SDS011;10179;42.640;23.312;2022-12-04T03:28:53;10.85;;;5.90;;
20036;SDS011;10179;42.640;23.312;2022-12-04T03:31:48;9.30;;;5.63;;
20036;SDS011;10179;42.640;23.312;2022-12-04T03:34:20;10.07;;;5.15;;
20036;SDS011;10179;42.640;23.312;2022-12-04T03:36:55;12.30;;;6.60;;
20036;SDS011;10179;42.640;23.312;2022-12-04T03:42:19;10.23;;;5.82;;
20036;SDS011;10179;42.640;23.312;2022-12-04T03:47:27;9.30;;;5.60;;
20036;SDS011;10179;42.640;23.312;2022-12-04T03:50:04;9.93;;;5.65;;
20036;SDS011;10179;42.640;23.312;2022-12-04T03:52:35;6.47;;;4.05;;
20036;SDS011;10179;42.640;23.312;2022-12-04T03:56:06;6.28;;;4.00;;
20036;SDS011;10179;42.640;23.312;2022-12-04T03:58:04;6.00;;;3.90;;
20036;SDS011;10179;42.640;23.312;2022-12-04T04:00:35;7.53;;;4.60;;
20036;SDS011;10179;42.640;23.312;2022-12-04T04:05:47;9.00;;;4.32;;
20036;SDS011;10179;42.640;23.312;2022-12-04T04:08:18;6.53;;;3.67;;
20036;SDS011;10179;42.640;23.312;2022-12-04T04:10:53;5.13;;;3.13;;
20036;SDS011;10179;42.640;23.312;2022-12-04T04:13:25;6.28;;;3.03;;
20036;SDS011;10179;42.640;23.312;2022-12-04T04:16:16;4.20;;;2.35;;
20036;SDS011;10179;42.640;23.312;2022-12-04T04:19:06;4.45;;;3.00;;
20036;SDS011;10179;42.640;23.312;2022-12-04T04:21:51;5.38;;;2.75;;
20036;SDS011;10179;42.640;23.312;2022-12-04T04:24:47;4.60;;;3.10;;
20036;SDS011;10179;42.640;23.312;2022-12-04T04:27:17;4.38;;;2.67;;
20036;SDS011;10179;42.640;23.312;2022-12-04T04:29:43;5.40;;;2.58;;
20036;SDS011;10179;42.640;23.312;2022-12-04T04:42:50;3.60;;;2.50;;
20036;SDS011;10179;42.640;23.312;2022-12-04T04:45:21;3.20;;;2.20;;
20036;SDS011;10179;42.640;23.312;2022-12-04T04:48:12;5.13;;;2.67;;
20036;SDS011;10179;42.640;23.312;2022-12-04T04:50:41;3.95;;;3.08;;
20036;SDS011;10179;42.640;23.312;2022-12-04T04:53:08;7.18;;;4.07;;
20036;SDS011;10179;42.640;23.312;2022-12-04T04:55:37;9.85;;;4.40;;
20036;SDS011;10179;42.640;23.312;2022-12-04T04:58:07;5.68;;;3.40;;
20036;SDS011;10179;42.640;23.312;2022-12-04T05:00:34;5.03;;;3.30;;
20036;SDS011;10179;42.640;23.312;2022-12-04T05:03:00;9.32;;;4.00;;
20036;SDS011;10179;42.640;23.312;2022-12-04T05:05:25;8.02;;;3.40;;
20036;SDS011;10179;42.640;23.312;2022-12-04T05:07:51;6.28;;;3.85;;
20036;SDS011;10179;42.640;23.312;2022-12-04T05:10:16;6.47;;;3.92;;
20036;SDS011;10179;42.640;23.312;2022-12-04T05:12:41;7.82;;;4.35;;
20036;SDS011;10179;42.640;23.312;2022-12-04T05:15:07;5.95;;;4.15;;
20036;SDS011;10179;42.640;23.312;2022-12-04T05:17:33;5.10;;;3.38;;
20036;SDS011;10179;42.640;23.312;2022-12-04T05:19:59;4.95;;;3.15;;
20036;SDS011;10179;42.640;23.312;2022-12-04T05:22:26;5.82;;;3.80;;
20036;SDS011;10179;42.640;23.312;2022-12-04T05:24:54;9.43;;;3.33;;
20036;SDS011;10179;42.640;23.312;2022-12-04T05:27:20;7.57;;;3.60;;
20036;SDS011;10179;42.640;23.312;2022-12-04T05:29:47;7.32;;;3.80;;
20036;SDS011;10179;42.640;23.312;2022-12-04T05:32:12;6.85;;;4.03;;
20036;SDS011;10179;42.640;23.312;2022-12-04T05:34:38;6.72;;;3.88;;
20036;SDS011;10179;42.640;23.312;2022-12-04T05:37:04;7.00;;;4.13;;
20036;SDS011;10179;42.640;23.312;2022-12-04T05:39:29;10.77;;;5.57;;
20036;SDS011;10179;42.640;23.312;2022-12-04T05:41:55;9.75;;;5.85;;
20036;SDS011;10179;42.640;23.312;2022-12-04T05:44:20;11.40;;;6.00;;
20036;SDS011;10179;42.640;23.312;2022-12-04T05:46:47;12.43;;;6.10;;
20036;SDS011;10179;42.640;23.312;2022-12-04T05:49:12;8.63;;;5.50;;
20036;SDS011;10179;42.640;23.312;2022-12-04T05:51:37;9.73;;;4.40;;
20036;SDS011;10179;42.640;23.312;2022-12-04T05:54:03;11.65;;;5.75;;
20036;SDS011;10179;42.640;23.312;2022-12-04T05:56:28;11.43;;;5.28;;
20036;SDS011;10179;42.640;23.312;2022-12-04T05:58:54;11.15;;;5.82;;
20036;SDS011;10179;42.640;23.312;2022-12-04T06:01:20;12.00;;;7.53;;
20036;SDS011;10179;42.640;23.312;2022-12-04T06:03:47;7.78;;;4.45;;
20036;SDS011;10179;42.640;23.312;2022-12-04T06:06:13;6.28;;;4.38;;
20036;SDS011;10179;42.640;23.312;2022-12-04T06:08:46;7.57;;;4.63;;
20036;SDS011;10179;42.640;23.312;2022-12-04T06:11:12;9.38;;;5.30;;
20036;SDS011;10179;42.640;23.312;2022-12-04T06:13:42;15.30;;;8.10;;
20036;SDS011;10179;42.640;23.312;2022-12-04T06:16:12;13.52;;;8.63;;
20036;SDS011;10179;42.640;23.312;2022-12-04T06:18:39;10.85;;;7.03;;
20036;SDS011;10179;42.640;23.312;2022-12-04T06:21:05;11.75;;;6.13;;
20036;SDS011;10179;42.640;23.312;2022-12-04T06:23:31;10.05;;;5.53;;
20036;SDS011;10179;42.640;23.312;2022-12-04T06:25:56;11.40;;;6.68;;
20036;SDS011;10179;42.640;23.312;2022-12-04T06:28:26;10.18;;;5.68;;
20036;SDS011;10179;42.640;23.312;2022-12-04T06:30:51;10.68;;;5.38;;
20036;SDS011;10179;42.640;23.312;2022-12-04T06:33:16;9.48;;;4.85;;
20036;SDS011;10179;42.640;23.312;2022-12-04T06:35:42;8.63;;;5.22;;
20036;SDS011;10179;42.640;23.312;2022-12-04T06:38:07;10.95;;;6.80;;
20036;SDS011;10179;42.640;23.312;2022-12-04T06:40:33;11.20;;;6.05;;
20036;SDS011;10179;42.640;23.312;2022-12-04T06:42:58;14.10;;;7.13;;
20036;SDS011;10179;42.640;23.312;2022-12-04T06:45:23;13.50;;;6.38;;
20036;SDS011;10179;42.640;23.312;2022-12-04T06:47:49;11.73;;;6.72;;
20036;SDS011;10179;42.640;23.312;2022-12-04T06:50:14;13.40;;;6.35;;
20036;SDS011;10179;42.640;23.312;2022-12-04T06:52:40;13.93;;;6.00;;
20036;SDS011;10179;42.640;23.312;2022-12-04T06:55:05;11.85;;;5.95;;
20036;SDS011;10179;42.640;23.312;2022-12-04T06:57:31;10.00;;;5.80;;
20036;SDS011;10179;42.640;23.312;2022-12-04T06:59:57;9.48;;;6.25;;
20036;SDS011;10179;42.640;23.312;2022-12-04T07:02:22;13.18;;;6.70;;
20036;SDS011;10179;42.640;23.312;2022-12-04T07:04:48;12.60;;;6.15;;
20036;SDS011;10179;42.640;23.312;2022-12-04T07:07:13;9.93;;;6.45;;
20036;SDS011;10179;42.640;23.312;2022-12-04T07:09:38;11.73;;;5.68;;
20036;SDS011;10179;42.640;23.312;2022-12-04T07:12:04;7.70;;;4.55;;
20036;SDS011;10179;42.640;23.312;2022-12-04T07:14:30;7.13;;;4.40;;
20036;SDS011;10179;42.640;23.312;2022-12-04T07:16:56;7.45;;;3.97;;
20036;SDS011;10179;42.640;23.312;2022-12-04T07:19:22;7.03;;;3.53;;
20036;SDS011;10179;42.640;23.312;2022-12-04T07:21:47;5.10;;;3.40;;
20036;SDS011;10179;42.640;23.312;2022-12-04T07:24:16;7.47;;;3.58;;
20036;SDS011;10179;42.640;23.312;2022-12-04T07:26:42;6.20;;;3.25;;
20036;SDS011;10179;42.640;23.312;2022-12-04T07:29:07;7.38;;;3.45;;
20036;SDS011;10179;42.640;23.312;2022-12-04T07:31:34;6.53;;;3.45;;
20036;SDS011;10179;42.640;23.312;2022-12-04T07:34:00;5.18;;;3.00;;
20036;SDS011;10179;42.640;23.312;2022-12-04T07:36:25;7.40;;;3.65;;
20036;SDS011;10179;42.640;23.312;2022-12-04T07:38:51;7.05;;;4.07;;
20036;SDS011;10179;42.640;23.312;2022-12-04T07:41:19;7.45;;;3.90;;
20036;SDS011;10179;42.640;23.312;2022-12-04T07:43:44;7.13;;;3.85;;
20036;SDS011;10179;42.640;23.312;2022-12-04T07:46:14;6.82;;;3.83;;
20036;SDS011;10179;42.640;23.312;2022-12-04T07:48:43;8.35;;;3.80;;
20036;SDS011;10179;42.640;23.312;2022-12-04T07:53:37;6.60;;;3.90;;
20036;SDS011;10179;42.640;23.312;2022-12-04T07:56:03;5.85;;;2.90;;
20036;SDS011;10179;42.640;23.312;2022-12-04T07:58:30;6.28;;;3.25;;
20036;SDS011;10179;42.640;23.312;2022-12-04T08:01:03;4.78;;;2.53;;
20036;SDS011;10179;42.640;23.312;2022-12-04T08:03:32;4.60;;;2.92;;
20036;SDS011;10179;42.640;23.312;2022-12-04T08:05:59;5.28;;;3.17;;
20036;SDS011;10179;42.640;23.312;2022-12-04T08:08:25;4.85;;;2.88;;
20036;SDS011;10179;42.640;23.312;2022-12-04T08:10:50;3.95;;;2.50;;
20036;SDS011;10179;42.640;23.312;2022-12-04T08:13:16;3.75;;;2.55;;
20036;SDS011;10179;42.640;23.312;2022-12-04T08:15:41;6.57;;;3.05;;
20036;SDS011;10179;42.640;23.312;2022-12-04T08:18:07;4.85;;;2.90;;
20036;SDS011;10179;42.640;23.312;2022-12-04T08:20:32;6.85;;;3.20;;
20036;SDS011;10179;42.640;23.312;2022-12-04T08:22:57;4.45;;;2.80;;
20036;SDS011;10179;42.640;23.312;2022-12-04T08:25:23;5.03;;;2.72;;
20036;SDS011;10179;42.640;23.312;2022-12-04T08:27:48;5.43;;;2.90;;
20036;SDS011;10179;42.640;23.312;2022-12-04T08:30:14;3.15;;;2.10;;
20036;SDS011;10179;42.640;23.312;2022-12-04T08:32:40;3.40;;;2.10;;
20036;SDS011;10179;42.640;23.312;2022-12-04T08:35:05;4.70;;;2.50;;
20036;SDS011;10179;42.640;23.312;2022-12-04T08:37:31;5.13;;;2.53;;
20036;SDS011;10179;42.640;23.312;2022-12-04T08:39:56;10.88;;;2.72;;
20036;SDS011;10179;42.640;23.312;2022-12-04T08:42:22;3.83;;;2.25;;
20036;SDS011;10179;42.640;23.312;2022-12-04T08:44:48;9.07;;;2.60;;
20036;SDS011;10179;42.640;23.312;2022-12-04T08:47:13;4.40;;;2.20;;
20036;SDS011;10179;42.640;23.312;2022-12-04T08:49:39;5.70;;;2.00;;
20036;SDS011;10179;42.640;23.312;2022-12-04T08:52:04;10.23;;;2.30;;
20036;SDS011;10179;42.640;23.312;2022-12-04T08:54:29;4.40;;;2.28;;
20036;SDS011;10179;42.640;23.312;2022-12-04T08:56:55;4.93;;;2.30;;
20036;SDS011;10179;42.640;23.312;2022-12-04T08:59:20;2.78;;;1.42;;
20036;SDS011;10179;42.640;23.312;2022-12-04T09:01:48;5.90;;;2.10;;
20036;SDS011;10179;42.640;23.312;2022-12-04T09:04:14;5.03;;;1.85;;
20036;SDS011;10179;42.640;23.312;2022-12-04T09:06:39;4.07;;;2.25;;
20036;SDS011;10179;42.640;23.312;2022-12-04T09:09:05;3.28;;;1.70;;
20036;SDS011;10179;42.640;23.312;2022-12-04T09:11:30;3.30;;;1.60;;
20036;SDS011;10179;42.640;23.312;2022-12-04T09:13:57;2.88;;;1.73;;
20036;SDS011;10179;42.640;23.312;2022-12-04T09:16:23;1.85;;;1.52;;
20036;SDS011;10179;42.640;23.312;2022-12-04T09:18:49;2.45;;;1.60;;
20036;SDS011;10179;42.640;23.312;2022-12-04T09:21:15;3.35;;;1.73;;
20036;SDS011;10179;42.640;23.312;2022-12-04T09:23:42;1.95;;;1.75;;
20036;SDS011;10179;42.640;23.312;2022-12-04T09:26:21;3.78;;;1.98;;
20036;SDS011;10179;42.640;23.312;2022-12-04T09:28:53;3.67;;;2.17;;
20036;SDS011;10179;42.640;23.312;2022-12-04T09:31:19;3.10;;;2.20;;
20036;SDS011;10179;42.640;23.312;2022-12-04T09:33:46;5.00;;;2.33;;
20036;SDS011;10179;42.640;23.312;2022-12-04T09:36:12;3.88;;;2.20;;
20036;SDS011;10179;42.640;23.312;2022-12-04T09:38:40;4.15;;;2.17;;
20036;SDS011;10179;42.640;23.312;2022-12-04T09:43:53;6.03;;;2.30;;
20036;SDS011;10179;42.640;23.312;2022-12-04T09:46:48;3.87;;;2.33;;
20036;SDS011;10179;42.640;23.312;2022-12-04T09:49:38;3.60;;;2.10;;
20036;SDS011;10179;42.640;23.312;2022-12-04T09:52:07;3.03;;;1.88;;
20036;SDS011;10179;42.640;23.312;2022-12-04T09:54:55;2.97;;;2.00;;
20036;SDS011;10179;42.640;23.312;2022-12-04T09:57:35;5.03;;;2.22;;
20036;SDS011;10179;42.640;23.312;2022-12-04T10:00:06;5.55;;;2.45;;
20036;SDS011;10179;42.640;23.312;2022-12-04T10:02:38;3.30;;;2.13;;
20036;SDS011;10179;42.640;23.312;2022-12-04T10:05:06;4.82;;;2.58;;
20036;SDS011;10179;42.640;23.312;2022-12-04T10:07:44;3.20;;;2.53;;
20036;SDS011;10179;42.640;23.312;2022-12-04T10:10:20;5.68;;;2.92;;
20036;SDS011;10179;42.640;23.312;2022-12-04T10:12:56;6.53;;;2.58;;
20036;SDS011;10179;42.640;23.312;2022-12-04T10:15:42;7.57;;;2.95;;
20036;SDS011;10179;42.640;23.312;2022-12-04T10:21:04;5.55;;;2.50;;
20036;SDS011;10179;42.640;23.312;2022-12-04T10:23:58;4.65;;;2.40;;
20036;SDS011;10179;42.640;23.312;2022-12-04T10:26:34;5.35;;;3.03;;
20036;SDS011;10179;42.640;23.312;2022-12-04T10:29:06;3.28;;;2.20;;
20036;SDS011;10179;42.640;23.312;2022-12-04T10:31:37;4.33;;;2.27;;
20036;SDS011;10179;42.640;23.312;2022-12-04T10:34:05;2.72;;;1.88;;
20036;SDS011;10179;42.640;23.312;2022-12-04T10:36:39;4.28;;;2.58;;
20036;SDS011;10179;42.640;23.312;2022-12-04T10:41:44;6.07;;;2.47;;
20036;SDS011;10179;42.640;23.312;2022-12-04T10:44:23;4.55;;;2.40;;
20036;SDS011;10179;42.640;23.312;2022-12-04T10:46:49;5.88;;;2.45;;
20036;SDS011;10179;42.640;23.312;2022-12-04T10:49:22;5.35;;;2.92;;
20036;SDS011;10179;42.640;23.312;2022-12-04T10:51:50;4.32;;;2.38;;
20036;SDS011;10179;42.640;23.312;2022-12-04T10:54:20;4.30;;;2.67;;
20036;SDS011;10179;42.640;23.312;2022-12-04T10:56:59;4.20;;;2.60;;
20036;SDS011;10179;42.640;23.312;2022-12-04T10:59:29;6.50;;;2.78;;
20036;SDS011;10179;42.640;23.312;2022-12-04T11:02:30;4.47;;;2.63;;
20036;SDS011;10179;42.640;23.312;2022-12-04T11:04:55;4.82;;;3.15;;
20036;SDS011;10179;42.640;23.312;2022-12-04T11:07:23;5.35;;;2.78;;
20036;SDS011;10179;42.640;23.312;2022-12-04T11:09:57;3.63;;;2.67;;
20036;SDS011;10179;42.640;23.312;2022-12-04T11:12:29;6.53;;;2.72;;
20036;SDS011;10179;42.640;23.312;2022-12-04T11:17:31;4.35;;;2.95;;
20036;SDS011;10179;42.640;23.312;2022-12-04T11:20:00;5.90;;;3.42;;
20036;SDS011;10179;42.640;23.312;2022-12-04T11:22:33;5.47;;;3.22;;
20036;SDS011;10179;42.640;23.312;2022-12-04T11:25:12;5.10;;;3.00;;
20036;SDS011;10179;42.640;23.312;2022-12-04T11:27:43;6.97;;;3.40;;
20036;SDS011;10179;42.640;23.312;2022-12-04T11:30:14;6.45;;;3.45;;
20036;SDS011;10179;42.640;23.312;2022-12-04T11:32:44;6.22;;;3.47;;
20036;SDS011;10179;42.640;23.312;2022-12-04T11:35:19;6.18;;;3.50;;
20036;SDS011;10179;42.640;23.312;2022-12-04T11:38:36;6.03;;;3.33;;
20036;SDS011;10179;42.640;23.312;2022-12-04T11:41:00;6.15;;;3.30;;
20036;SDS011;10179;42.640;23.312;2022-12-04T11:43:28;5.50;;;3.15;;
20036;SDS011;10179;42.640;23.312;2022-12-04T11:46:00;7.10;;;3.42;;
20036;SDS011;10179;42.640;23.312;2022-12-04T11:48:28;5.47;;;3.00;;
20036;SDS011;10179;42.640;23.312;2022-12-04T11:51:06;5.15;;;3.45;;
20036;SDS011;10179;42.640;23.312;2022-12-04T11:56:46;9.38;;;3.88;;
20036;SDS011;10179;42.640;23.312;2022-12-04T12:07:24;7.18;;;3.80;;
20036;SDS011;10179;42.640;23.312;2022-12-04T12:12:53;4.78;;;3.55;;
20036;SDS011;10179;42.640;23.312;2022-12-04T12:15:32;4.35;;;3.28;;
20036;SDS011;10179;42.640;23.312;2022-12-04T12:21:20;5.93;;;3.65;;
20036;SDS011;10179;42.640;23.312;2022-12-04T12:24:02;5.70;;;3.75;;
20036;SDS011;10179;42.640;23.312;2022-12-04T12:26:33;5.55;;;3.30;;
20036;SDS011;10179;42.640;23.312;2022-12-04T12:29:14;6.93;;;4.20;;
20036;SDS011;10179;42.640;23.312;2022-12-04T12:32:01;5.20;;;3.25;;
20036;SDS011;10179;42.640;23.312;2022-12-04T12:34:41;5.78;;;3.67;;
20036;SDS011;10179;42.640;23.312;2022-12-04T12:37:34;5.75;;;3.67;;
20036;SDS011;10179;42.640;23.312;2022-12-04T12:43:05;7.55;;;4.15;;
20036;SDS011;10179;42.640;23.312;2022-12-04T12:48:14;5.18;;;3.67;;
20036;SDS011;10179;42.640;23.312;2022-12-04T12:50:48;6.13;;;4.00;;
20036;SDS011;10179;42.640;23.312;2022-12-04T12:53:20;6.40;;;4.00;;
20036;SDS011;10179;42.640;23.312;2022-12-04T12:55:51;6.93;;;4.00;;
20036;SDS011;10179;42.640;23.312;2022-12-04T13:03:48;8.15;;;4.13;;
20036;SDS011;10179;42.640;23.312;2022-12-04T13:06:37;7.50;;;3.72;;
20036;SDS011;10179;42.640;23.312;2022-12-04T13:09:16;7.50;;;4.30;;
20036;SDS011;10179;42.640;23.312;2022-12-04T13:11:50;6.28;;;3.80;;
20036;SDS011;10179;42.640;23.312;2022-12-04T13:14:18;7.22;;;4.43;;
20036;SDS011;10179;42.640;23.312;2022-12-04T13:16:46;6.50;;;4.00;;
20036;SDS011;10179;42.640;23.312;2022-12-04T13:27:16;7.40;;;4.05;;
20036;SDS011;10179;42.640;23.312;2022-12-04T13:38:08;6.22;;;3.75;;
20036;SDS011;10179;42.640;23.312;2022-12-04T13:41:07;9.32;;;4.47;;
20036;SDS011;10179;42.640;23.312;2022-12-04T13:43:43;8.15;;;4.60;;
20036;SDS011;10179;42.640;23.312;2022-12-04T13:46:24;5.18;;;3.50;;
20036;SDS011;10179;42.640;23.312;2022-12-04T13:49:08;5.75;;;3.08;;
20036;SDS011;10179;42.640;23.312;2022-12-04T13:51:50;5.43;;;3.30;;
20036;SDS011;10179;42.640;23.312;2022-12-04T13:54:21;5.85;;;3.50;;
20036;SDS011;10179;42.640;23.312;2022-12-04T13:56:54;6.47;;;3.70;;
20036;SDS011;10179;42.640;23.312;2022-12-04T14:01:59;6.70;;;3.63;;
20036;SDS011;10179;42.640;23.312;2022-12-04T14:07:05;6.05;;;2.88;;
20036;SDS011;10179;42.640;23.312;2022-12-04T14:12:04;6.03;;;3.22;;
20036;SDS011;10179;42.640;23.312;2022-12-04T14:14:38;5.38;;;3.28;;
20036;SDS011;10179;42.640;23.312;2022-12-04T14:17:19;6.68;;;3.35;;
20036;SDS011;10179;42.640;23.312;2022-12-04T14:19:51;6.13;;;3.20;;
20036;SDS011;10179;42.640;23.312;2022-12-04T14:22:23;5.15;;;2.75;;
20036;SDS011;10179;42.640;23.312;2022-12-04T14:30:17;4.50;;;2.85;;
20036;SDS011;10179;42.640;23.312;2022-12-04T14:32:47;5.57;;;3.00;;
20036;SDS011;10179;42.640;23.312;2022-12-04T14:35:23;6.47;;;3.20;;
20036;SDS011;10179;42.640;23.312;2022-12-04T14:37:59;6.47;;;3.20;;
20036;SDS011;10179;42.640;23.312;2022-12-04T14:40:28;4.88;;;3.15;;
20036;SDS011;10179;42.640;23.312;2022-12-04T14:43:00;5.65;;;3.13;;
20036;SDS011;10179;42.640;23.312;2022-12-04T14:59:15;6.57;;;3.28;;
20036;SDS011;10179;42.640;23.312;2022-12-04T15:01:47;5.53;;;2.92;;
20036;SDS011;10179;42.640;23.312;2022-12-04T15:06:51;5.18;;;3.13;;
20036;SDS011;10179;42.640;23.312;2022-12-04T15:09:19;6.70;;;3.10;;
20036;SDS011;10179;42.640;23.312;2022-12-04T15:12:23;4.18;;;2.65;;
20036;SDS011;10179;42.640;23.312;2022-12-04T15:15:12;6.57;;;3.25;;
20036;SDS011;10179;42.640;23.312;2022-12-04T15:17:40;6.82;;;3.42;;
20036;SDS011;10179;42.640;23.312;2022-12-04T15:20:06;6.03;;;3.35;;
20036;SDS011;10179;42.640;23.312;2022-12-04T15:22:39;5.88;;;3.55;;
20036;SDS011;10179;42.640;23.312;2022-12-04T15:25:05;7.60;;;2.85;;
20036;SDS011;10179;42.640;23.312;2022-12-04T15:27:38;5.72;;;3.42;;
20036;SDS011;10179;42.640;23.312;2022-12-04T15:30:04;6.30;;;2.95;;
20036;SDS011;10179;42.640;23.312;2022-12-04T15:32:30;5.57;;;3.03;;
20036;SDS011;10179;42.640;23.312;2022-12-04T15:35:00;7.13;;;3.50;;
20036;SDS011;10179;42.640;23.312;2022-12-04T15:37:30;7.70;;;3.65;;
20036;SDS011;10179;42.640;23.312;2022-12-04T15:39:56;6.25;;;3.35;;
20036;SDS011;10179;42.640;23.312;2022-12-04T15:45:30;5.45;;;3.20;;
20036;SDS011;10179;42.640;23.312;2022-12-04T15:47:48;6.55;;;3.38;;
20036;SDS011;10179;42.640;23.312;2022-12-04T15:55:17;6.38;;;3.40;;
20036;SDS011;10179;42.640;23.312;2022-12-04T15:57:52;6.18;;;3.65;;
20036;SDS011;10179;42.640;23.312;2022-12-04T16:00:30;5.00;;;3.22;;
20036;SDS011;10179;42.640;23.312;2022-12-04T16:03:00;5.18;;;3.28;;
20036;SDS011;10179;42.640;23.312;2022-12-04T16:05:30;4.88;;;3.08;;
20036;SDS011;10179;42.640;23.312;2022-12-04T16:11:04;4.85;;;2.83;;
20036;SDS011;10179;42.640;23.312;2022-12-04T16:13:32;4.65;;;2.80;;
20036;SDS011;10179;42.640;23.312;2022-12-04T16:16:01;6.30;;;3.40;;
20036;SDS011;10179;42.640;23.312;2022-12-04T16:18:30;6.30;;;3.13;;
20036;SDS011;10179;42.640;23.312;2022-12-04T16:20:56;6.22;;;3.25;;
20036;SDS011;10179;42.640;23.312;2022-12-04T16:23:22;7.43;;;3.47;;
20036;SDS011;10179;42.640;23.312;2022-12-04T16:25:51;5.00;;;2.95;;
20036;SDS011;10179;42.640;23.312;2022-12-04T16:28:16;8.95;;;3.15;;
20036;SDS011;10179;42.640;23.312;2022-12-04T16:30:42;6.15;;;3.10;;
20036;SDS011;10179;42.640;23.312;2022-12-04T16:33:08;6.28;;;3.63;;
20036;SDS011;10179;42.640;23.312;2022-12-04T16:35:37;7.13;;;3.30;;
20036;SDS011;10179;42.640;23.312;2022-12-04T16:38:02;5.25;;;3.40;;
20036;SDS011;10179;42.640;23.312;2022-12-04T16:40:28;5.80;;;3.25;;
20036;SDS011;10179;42.640;23.312;2022-12-04T16:42:53;5.15;;;3.53;;
20036;SDS011;10179;42.640;23.312;2022-12-04T16:47:55;6.13;;;3.60;;
20036;SDS011;10179;42.640;23.312;2022-12-04T16:50:22;6.38;;;3.88;;
20036;SDS011;10179;42.640;23.312;2022-12-04T16:52:47;9.70;;;4.95;;
20036;SDS011;10179;42.640;23.312;2022-12-04T16:55:17;13.45;;;5.40;;
20036;SDS011;10179;42.640;23.312;2022-12-04T16:57:43;10.27;;;5.47;;
20036;SDS011;10179;42.640;23.312;2022-12-04T17:00:13;21.38;;;6.35;;
20036;SDS011;10179;42.640;23.312;2022-12-04T17:02:40;12.55;;;4.75;;
20036;SDS011;10179;42.640;23.312;2022-12-04T17:05:06;10.65;;;4.50;;
20036;SDS011;10179;42.640;23.312;2022-12-04T17:07:36;8.50;;;3.40;;
20036;SDS011;10179;42.640;23.312;2022-12-04T17:10:01;10.05;;;4.15;;